createdAt,value
2018-02-07T00:00:44.118Z,43.77
2018-02-07T00:03:12.306Z,41.47
2018-02-07T00:05:41.256Z,43.77
2018-02-07T00:08:09.435Z,44.20
2018-02-07T00:10:37.617Z,41.87
2018-02-07T00:13:05.788Z,40.70
2018-02-07T00:15:34.759Z,42.93
2018-02-07T00:18:02.924Z,40.70
2018-02-07T00:20:31.107Z,39.43
2018-02-07T00:22:59.281Z,37.63
2018-02-07T00:25:27.447Z,41.08
2018-02-07T00:27:55.614Z,37.93
2018-02-07T00:30:23.781Z,37.03
2018-02-07T00:32:51.950Z,38.75
2018-02-07T00:35:20.900Z,42.03
2018-02-07T00:37:49.118Z,40.12
2018-02-07T00:40:17.289Z,40.88
2018-02-07T00:42:46.248Z,40.67
2018-02-07T00:45:14.435Z,42.30
2018-02-07T00:47:42.615Z,39.60
2018-02-07T00:50:11.545Z,39.30
2018-02-07T00:52:39.726Z,38.55
2018-02-07T00:55:07.922Z,38.15
2018-02-07T00:57:36.097Z,39.30
2018-02-07T01:00:04.258Z,37.37
2018-02-07T01:02:32.435Z,38.97
2018-02-07T01:05:00.628Z,37.80
2018-02-07T01:07:28.796Z,39.17
2018-02-07T01:09:56.969Z,41.22
2018-02-07T01:12:25.138Z,38.43
2018-02-07T01:14:54.084Z,38.05
2018-02-07T01:17:23.027Z,40.85
2018-02-07T01:19:51.198Z,39.10
2018-02-07T01:22:19.381Z,39.53
2018-02-07T01:24:47.565Z,39.13
2018-02-07T01:27:15.738Z,37.90
2018-02-07T01:29:43.909Z,44.57
2018-02-07T01:32:12.081Z,43.80
2018-02-07T01:34:40.242Z,41.97
2018-02-07T01:37:08.449Z,40.67
2018-02-07T01:39:36.606Z,39.37
2018-02-07T01:42:04.795Z,38.60
2018-02-07T01:44:32.969Z,39.20
2018-02-07T01:47:01.155Z,41.20
2018-02-07T01:49:29.329Z,40.87
2018-02-07T01:51:57.510Z,42.00
2018-02-07T01:54:26.468Z,40.67
2018-02-07T01:56:54.623Z,40.50
2018-02-07T01:59:22.816Z,40.37
2018-02-07T02:01:51.018Z,41.60
2018-02-07T02:04:19.181Z,38.15
2018-02-07T02:06:47.346Z,41.30
2018-02-07T02:09:15.537Z,41.25
2018-02-07T02:11:43.708Z,41.17
2018-02-07T02:14:11.886Z,40.97
2018-02-07T02:16:40.062Z,40.15
2018-02-07T02:19:08.234Z,40.78
2018-02-07T02:21:36.400Z,41.30
2018-02-07T02:24:04.589Z,39.37
2018-02-07T02:26:32.754Z,40.73
2018-02-07T02:29:00.946Z,43.47
2018-02-07T02:31:29.890Z,40.38
2018-02-07T02:33:58.070Z,41.17
2018-02-07T02:36:41.242Z,41.08
2018-02-07T02:39:10.230Z,45.07
2018-02-07T02:41:39.173Z,38.72
2018-02-07T02:44:07.378Z,40.42
2018-02-07T02:46:35.545Z,40.37
2018-02-07T02:49:03.712Z,43.33
2018-02-07T02:51:31.903Z,41.08
2018-02-07T02:54:00.094Z,41.17
2018-02-07T02:56:28.273Z,43.20
2018-02-07T02:58:57.226Z,42.47
2018-02-07T03:01:26.184Z,45.50
2018-02-07T03:03:54.361Z,43.63
2018-02-07T03:06:22.541Z,43.77
2018-02-07T03:08:50.703Z,43.97
2018-02-07T03:11:19.635Z,41.87
2018-02-07T03:13:47.817Z,43.93
2018-02-07T03:16:15.982Z,40.97
2018-02-07T03:18:44.178Z,41.03
2018-02-07T03:21:12.365Z,43.15
2018-02-07T03:23:40.536Z,41.83
2018-02-07T03:26:08.727Z,41.50
2018-02-07T03:28:37.666Z,41.60
2018-02-07T03:31:05.836Z,43.90
2018-02-07T03:33:34.022Z,40.43
2018-02-07T03:36:02.201Z,42.80
2018-02-07T03:38:30.390Z,42.57
2018-02-07T03:40:58.617Z,39.83
2018-02-07T03:43:26.789Z,44.00
2018-02-07T03:45:54.945Z,43.37
2018-02-07T03:48:23.897Z,44.47
2018-02-07T03:50:52.050Z,43.90
2018-02-07T03:53:20.249Z,44.35
2018-02-07T03:55:48.437Z,47.27
2018-02-07T03:58:16.654Z,44.90
2018-02-07T04:00:45.581Z,44.57
2018-02-07T04:03:13.746Z,43.80
2018-02-07T04:05:41.945Z,42.80
2018-02-07T04:08:10.109Z,42.27
2018-02-07T04:10:38.307Z,44.03
2018-02-07T04:13:06.490Z,45.12
2018-02-07T04:15:34.665Z,44.83
2018-02-07T04:18:03.610Z,46.53
2018-02-07T04:20:31.785Z,46.10
2018-02-07T04:22:59.958Z,43.95
2018-02-07T04:25:28.144Z,43.33
2018-02-07T04:27:56.322Z,45.10
2018-02-07T04:30:24.489Z,45.22
2018-02-07T04:32:52.658Z,40.95
2018-02-07T04:35:20.853Z,41.45
2018-02-07T04:37:49.049Z,45.85
2018-02-07T04:40:17.218Z,44.28
2018-02-07T04:42:45.398Z,43.67
2018-02-07T04:45:13.577Z,43.28
2018-02-07T04:47:41.737Z,44.53
2018-02-07T04:50:09.902Z,42.65
2018-02-07T04:52:38.081Z,45.08
2018-02-07T04:55:06.261Z,44.88
2018-02-07T04:57:34.430Z,40.45
2018-02-07T05:00:02.625Z,41.53
2018-02-07T05:02:31.573Z,42.97
2018-02-07T05:04:59.744Z,42.95
2018-02-07T05:07:27.947Z,39.65
2018-02-07T05:09:56.117Z,44.58
2018-02-07T05:12:24.285Z,42.35
2018-02-07T05:14:52.456Z,41.97
2018-02-07T05:17:20.625Z,42.83
2018-02-07T05:19:48.802Z,44.22
2018-02-07T05:22:16.977Z,43.10
2018-02-07T05:24:45.157Z,41.30
2018-02-07T05:27:13.332Z,41.95
2018-02-07T05:29:41.500Z,42.00
2018-02-07T05:32:09.673Z,35.83
2018-02-07T05:34:37.841Z,37.50
2018-02-07T05:37:06.014Z,36.87
2018-02-07T05:39:34.241Z,36.40
2018-02-07T05:42:03.174Z,35.50
2018-02-07T05:44:31.339Z,36.17
2018-02-07T05:46:59.505Z,35.97
2018-02-07T05:49:27.700Z,35.42
2018-02-07T05:51:55.876Z,37.05
2018-02-07T05:54:24.059Z,35.03
2018-02-07T05:56:52.237Z,38.50
2018-02-07T05:59:20.403Z,36.60
2018-02-07T06:01:48.567Z,33.20
2018-02-07T06:04:16.732Z,37.30
2018-02-07T07:28:42.589Z,34.33
2018-02-07T07:31:11.527Z,32.90
2018-02-07T07:33:39.702Z,33.65
2018-02-07T07:36:07.877Z,30.95
2018-02-07T07:38:36.108Z,29.47
2018-02-07T07:41:05.057Z,29.50
2018-02-07T07:43:33.231Z,28.53
2018-02-07T07:46:01.406Z,29.97
2018-02-07T07:48:29.591Z,28.80
2018-02-07T07:50:57.870Z,29.07
2018-02-07T07:53:26.035Z,28.50
2018-02-07T07:55:54.195Z,29.97
2018-02-07T07:58:22.359Z,28.30
2018-02-07T08:00:50.529Z,27.60
2018-02-07T08:03:18.689Z,27.27
2018-02-07T08:05:47.632Z,30.73
2018-02-07T08:08:15.807Z,28.80
2018-02-07T08:10:43.979Z,27.10
2018-02-07T08:13:12.915Z,27.93
2018-02-07T08:15:41.864Z,25.37
2018-02-07T08:18:10.030Z,29.93
2018-02-07T08:20:38.195Z,26.07
2018-02-07T08:23:06.410Z,31.30
2018-02-07T08:25:34.573Z,28.30
2018-02-07T08:28:02.826Z,27.80
2018-02-07T08:30:30.993Z,29.03
2018-02-07T08:32:59.200Z,28.67
2018-02-07T08:35:28.129Z,25.80
2018-02-07T08:37:57.068Z,27.77
2018-02-07T08:40:25.285Z,26.63
2018-02-07T08:42:54.237Z,27.30
2018-02-07T08:45:22.406Z,28.20
2018-02-07T08:47:50.574Z,25.70
2018-02-07T08:50:18.734Z,27.30
2018-02-07T08:52:46.899Z,28.20
2018-02-07T08:55:15.067Z,28.93
2018-02-07T08:57:44.053Z,25.60
2018-02-07T09:00:12.194Z,27.50
2018-02-07T09:02:40.352Z,26.00
2018-02-07T09:05:08.546Z,26.37
2018-02-07T09:07:36.755Z,25.30
2018-02-07T09:10:05.711Z,25.57
2018-02-07T09:12:34.114Z,26.30
2018-02-07T09:15:03.051Z,28.90
2018-02-07T09:17:31.238Z,26.60
2018-02-07T09:19:59.411Z,28.03
2018-02-07T09:22:27.618Z,27.93
2018-02-07T09:24:56.088Z,29.60
2018-02-07T09:27:25.344Z,28.40
2018-02-07T09:29:53.518Z,28.90
2018-02-07T09:32:21.699Z,25.27
2018-02-07T09:34:49.894Z,27.00
2018-02-07T09:37:21.229Z,26.97
2018-02-07T09:39:49.465Z,29.57
2018-02-07T09:42:18.407Z,25.73
2018-02-07T09:44:49.591Z,26.17
2018-02-07T09:47:22.566Z,26.63
2018-02-07T09:49:50.750Z,29.50
2018-02-07T09:52:19.152Z,30.10
2018-02-07T09:54:51.764Z,33.67
2018-02-07T09:57:19.942Z,30.93
2018-02-07T09:59:48.509Z,32.80
2018-02-07T10:02:17.082Z,32.47
2018-02-07T10:04:45.402Z,30.90
2018-02-07T10:07:13.643Z,33.10
2018-02-07T10:09:41.824Z,38.47
2018-02-07T10:12:10.069Z,29.83
2018-02-07T10:14:39.041Z,32.43
2018-02-07T10:17:07.235Z,33.20
2018-02-07T10:19:36.199Z,30.47
2018-02-07T10:22:04.378Z,32.03
2018-02-07T10:24:32.592Z,30.20
2018-02-07T10:27:01.539Z,29.93
2018-02-07T10:29:29.737Z,30.40
2018-02-07T10:31:57.926Z,32.70
2018-02-07T10:34:26.998Z,29.73
2018-02-07T10:36:55.178Z,32.57
2018-02-07T10:39:23.414Z,31.47
2018-02-07T10:41:51.627Z,32.87
2018-02-07T10:44:19.834Z,30.23
2018-02-07T10:46:48.053Z,31.10
2018-02-07T10:49:16.248Z,31.97
2018-02-07T10:51:44.460Z,29.50
2018-02-07T10:54:12.628Z,31.70
2018-02-07T10:56:41.572Z,30.53
2018-02-07T10:59:09.751Z,32.63
2018-02-07T11:01:37.950Z,32.37
2018-02-07T11:04:06.183Z,30.37
2018-02-07T11:06:34.388Z,32.00
2018-02-07T11:09:02.633Z,31.03
2018-02-07T11:11:30.832Z,33.60
2018-02-07T11:13:59.051Z,32.23
2018-02-07T11:16:28.046Z,33.17
2018-02-07T11:18:56.988Z,32.63
2018-02-07T11:21:25.182Z,30.37
2018-02-07T11:23:53.410Z,30.90
2018-02-07T11:26:21.591Z,44.07
2018-02-07T11:28:49.772Z,33.90
2018-02-07T11:31:17.959Z,35.17
2018-02-07T11:33:46.155Z,49.43
2018-02-07T11:36:14.355Z,34.67
2018-02-07T11:38:43.327Z,34.47
2018-02-07T11:41:11.551Z,31.37
2018-02-07T11:43:39.815Z,29.63
2018-02-07T11:46:07.998Z,29.60
2018-02-07T11:48:36.173Z,31.27
2018-02-07T11:51:04.410Z,28.27
2018-02-07T11:53:32.620Z,27.33
2018-02-07T11:56:03.927Z,26.40
2018-02-07T11:58:32.110Z,25.83
2018-02-07T12:01:00.319Z,22.17
2018-02-07T12:03:29.961Z,20.40
2018-02-07T12:05:58.161Z,21.07
2018-02-07T12:08:26.338Z,20.63
2018-02-07T12:10:54.583Z,22.47
2018-02-07T12:13:22.765Z,22.10
2018-02-07T12:15:50.936Z,20.63
2018-02-07T12:18:19.112Z,21.77
2018-02-07T12:20:47.292Z,20.80
2018-02-07T12:23:15.506Z,21.33
2018-02-07T12:25:44.452Z,21.80
2018-02-07T12:28:12.633Z,20.87
2018-02-07T12:30:40.820Z,52.00
2018-02-07T12:33:08.999Z,21.37
2018-02-07T12:35:37.201Z,20.37
2018-02-07T12:38:05.374Z,19.87
2018-02-07T12:40:34.300Z,21.17
2018-02-07T12:43:02.516Z,21.60
2018-02-07T12:45:30.723Z,20.67
2018-02-07T12:47:59.653Z,20.07
2018-02-07T12:50:27.825Z,19.87
2018-02-07T12:52:56.012Z,21.47
2018-02-07T12:55:24.189Z,20.57
2018-02-07T12:57:52.364Z,20.30
2018-02-07T13:00:20.590Z,20.97
2018-02-07T13:02:48.759Z,23.25
2018-02-07T13:05:17.715Z,21.87
2018-02-07T13:07:45.879Z,22.30
2018-02-07T13:10:14.063Z,21.67
2018-02-07T13:12:42.262Z,19.70
2018-02-07T13:15:11.237Z,19.87
2018-02-07T13:17:39.410Z,19.73
2018-02-07T13:20:07.601Z,19.93
2018-02-07T13:22:35.921Z,21.07
2018-02-07T13:25:04.098Z,19.17
2018-02-07T13:27:32.375Z,19.07
2018-02-07T13:30:00.607Z,21.53
2018-02-07T13:32:28.794Z,19.90
2018-02-07T13:34:57.753Z,20.53
2018-02-07T13:37:26.140Z,21.80
2018-02-07T13:39:54.338Z,20.87
2018-02-07T13:42:23.338Z,20.80
2018-02-07T13:44:52.332Z,21.90
2018-02-07T13:47:21.291Z,20.37
2018-02-07T13:49:49.488Z,21.60
2018-02-07T13:52:18.453Z,20.00
2018-02-07T13:54:46.662Z,20.40
2018-02-07T13:57:15.655Z,20.63
2018-02-07T13:59:44.683Z,21.07
2018-02-07T14:02:12.873Z,21.03
2018-02-07T14:04:41.064Z,19.43
2018-02-07T14:07:09.314Z,20.43
2018-02-07T14:09:37.542Z,20.40
2018-02-07T14:12:05.769Z,19.03
2018-02-07T14:14:33.965Z,20.20
2018-02-07T14:17:02.169Z,21.83
2018-02-07T14:19:30.359Z,20.23
2018-02-07T14:21:59.374Z,21.40
2018-02-07T14:24:28.331Z,27.33
2018-02-07T14:26:57.286Z,30.57
2018-02-07T14:29:25.547Z,28.60
2018-02-07T14:31:53.760Z,24.70
2018-02-07T14:34:21.966Z,19.60
2018-02-07T14:36:50.969Z,22.87
2018-02-07T14:39:19.204Z,22.40
2018-02-07T14:41:47.433Z,24.50
2018-02-07T14:44:16.373Z,22.30
2018-02-07T14:46:44.637Z,24.93
2018-02-07T14:49:12.843Z,25.30
2018-02-07T14:51:41.836Z,25.10
2018-02-07T14:54:10.843Z,25.90
2018-02-07T14:56:39.143Z,25.27
2018-02-07T14:59:07.380Z,26.03
2018-02-07T15:01:35.622Z,26.83
2018-02-07T15:04:03.875Z,25.60
2018-02-07T15:06:32.120Z,28.67
2018-02-07T15:09:01.140Z,26.03
2018-02-07T15:11:29.357Z,28.60
2018-02-07T15:13:57.599Z,26.77
2018-02-07T15:16:25.899Z,25.90
2018-02-07T15:18:54.916Z,27.07
2018-02-07T15:21:23.130Z,27.60
2018-02-07T15:23:51.391Z,27.70
2018-02-07T15:26:20.391Z,28.50
2018-02-07T15:28:49.361Z,27.40
2018-02-07T15:31:17.576Z,30.57
2018-02-07T15:33:45.834Z,31.83
2018-02-07T15:36:14.832Z,29.07
2018-02-07T15:38:43.833Z,27.13
2018-02-07T15:41:12.012Z,28.90
2018-02-07T15:43:40.253Z,27.10
2018-02-07T15:46:08.492Z,28.20
2018-02-07T15:48:36.687Z,27.17
2018-02-07T15:51:04.926Z,29.80
2018-02-07T15:53:33.149Z,28.43
2018-02-07T15:56:01.430Z,29.50
2018-02-07T15:58:29.622Z,27.53
2018-02-07T16:00:58.669Z,28.00
2018-02-07T16:03:26.947Z,27.50
2018-02-07T16:05:56.090Z,29.97
2018-02-07T16:08:25.212Z,37.07
2018-02-07T16:10:53.510Z,30.77
2018-02-07T16:13:21.828Z,29.20
2018-02-07T16:15:50.126Z,28.63
2018-02-07T16:18:19.444Z,29.40
2018-02-07T16:20:52.786Z,28.87
2018-02-07T16:23:21.305Z,29.40
2018-02-07T16:25:52.506Z,28.80
2018-02-07T16:28:23.411Z,29.43
2018-02-07T16:30:53.842Z,27.63
2018-02-07T16:33:22.105Z,28.00
2018-02-07T16:35:51.384Z,29.43
2018-02-07T16:38:24.161Z,32.53
2018-02-07T16:40:52.362Z,30.77
2018-02-07T16:43:20.604Z,29.33
2018-02-07T16:45:50.355Z,30.43
2018-02-07T16:48:24.284Z,29.80
2018-02-07T16:50:52.719Z,32.47
2018-02-07T16:53:21.748Z,29.27
2018-02-07T16:55:52.300Z,28.50
2018-02-07T16:58:22.506Z,30.30
2018-02-07T17:00:50.738Z,30.00
2018-02-07T17:03:19.738Z,30.67
2018-02-07T17:05:48.742Z,27.00
2018-02-07T17:08:17.701Z,26.60
2018-02-07T17:10:45.957Z,29.03
2018-02-07T17:13:14.196Z,28.53
2018-02-07T17:15:42.516Z,27.13
2018-02-07T17:18:10.736Z,29.37
2018-02-07T17:20:39.763Z,27.80
2018-02-07T17:23:07.988Z,28.53
2018-02-07T17:25:36.295Z,27.57
2018-02-07T17:28:04.576Z,29.03
2018-02-07T17:30:32.793Z,29.43
2018-02-07T17:33:01.013Z,31.03
2018-02-07T17:35:29.992Z,30.07
2018-02-07T17:37:58.974Z,30.93
2018-02-07T17:40:27.195Z,30.90
2018-02-07T17:42:55.479Z,29.60
2018-02-07T17:45:23.746Z,28.67
2018-02-07T17:47:51.963Z,29.37
2018-02-07T17:50:20.207Z,30.77
2018-02-07T17:52:48.511Z,31.50
2018-02-07T17:55:16.834Z,33.40
2018-02-07T17:57:45.851Z,32.37
2018-02-07T18:00:14.911Z,31.50
2018-02-07T18:02:43.108Z,34.57
2018-02-07T18:05:11.403Z,33.20
2018-02-07T18:07:39.658Z,33.63
2018-02-07T18:10:08.748Z,32.70
2018-02-07T18:12:37.805Z,32.30
2018-02-07T18:15:06.047Z,32.80
2018-02-07T18:17:34.259Z,31.40
2018-02-07T18:20:02.524Z,32.70
2018-02-07T18:22:30.805Z,33.23
2018-02-07T18:24:59.084Z,31.90
2018-02-07T18:27:27.329Z,34.83
2018-02-07T18:29:55.664Z,32.17
2018-02-07T18:32:23.882Z,34.17
2018-02-07T18:34:52.105Z,34.30
2018-02-07T18:37:20.322Z,42.80
2018-02-07T18:39:48.522Z,34.77
2018-02-07T18:42:16.724Z,46.10
2018-02-07T18:44:45.009Z,36.73
2018-02-07T18:47:13.240Z,38.43
2018-02-07T18:49:41.421Z,36.17
2018-02-07T18:52:09.660Z,38.27
2018-02-07T18:54:38.722Z,36.50
2018-02-07T18:57:06.938Z,36.53
2018-02-07T18:59:35.220Z,41.33
2018-02-07T19:02:03.437Z,51.10
2018-02-07T19:04:31.657Z,36.67
2018-02-07T19:07:00.692Z,38.47
2018-02-07T19:09:28.961Z,36.10
2018-02-07T19:11:57.155Z,38.87
2018-02-07T19:14:25.350Z,38.67
2018-02-07T19:16:53.572Z,39.57
2018-02-07T19:19:21.776Z,38.13
2018-02-07T19:21:49.974Z,38.00
2018-02-07T19:24:18.188Z,39.37
2018-02-07T19:26:47.235Z,40.03
2018-02-07T19:29:16.279Z,41.07
2018-02-07T19:31:44.592Z,41.23
2018-02-07T19:34:12.810Z,39.97
2018-02-07T19:36:41.013Z,38.30
2018-02-07T19:39:09.274Z,39.60
2018-02-07T19:41:38.248Z,38.03
2018-02-07T19:44:06.492Z,38.17
2018-02-07T19:46:34.683Z,39.40
2018-02-07T19:49:02.909Z,37.60
2018-02-07T19:51:33.728Z,39.23
2018-02-07T19:54:06.624Z,40.63
2018-02-07T19:56:34.827Z,42.60
2018-02-07T19:59:03.247Z,40.30
2018-02-07T20:01:35.388Z,42.57
2018-02-07T20:04:03.625Z,39.17
2018-02-07T20:06:31.826Z,38.90
2018-02-07T20:09:01.961Z,39.63
2018-02-07T20:11:36.261Z,38.57
2018-02-07T20:14:04.556Z,37.97
2018-02-07T20:16:35.560Z,38.20
2018-02-07T20:19:03.989Z,37.03
2018-02-07T20:21:32.183Z,39.93
2018-02-07T20:24:00.369Z,38.97
2018-02-07T20:26:29.379Z,38.20
2018-02-07T20:28:58.334Z,38.40
2018-02-07T20:31:26.643Z,37.60
2018-02-07T20:33:55.603Z,38.53
2018-02-07T20:36:23.823Z,36.17
2018-02-07T20:38:52.017Z,39.87
2018-02-07T20:44:22.944Z,41.60
2018-02-07T20:47:22.659Z,42.40
2018-02-07T20:49:51.618Z,39.30
2018-02-07T20:52:19.878Z,43.40
2018-02-07T20:54:48.120Z,40.93
2018-02-07T20:57:16.337Z,40.57
2018-02-07T20:59:44.539Z,41.53
2018-02-07T21:02:12.734Z,41.60
2018-02-07T21:04:41.697Z,42.90
2018-02-07T21:07:09.879Z,41.00
2018-02-07T21:09:38.056Z,38.77
2018-02-07T21:12:06.243Z,42.17
2018-02-07T21:14:35.191Z,41.70
2018-02-07T21:17:03.371Z,38.33
2018-02-07T21:19:31.566Z,39.07
2018-02-07T21:21:59.768Z,40.13
2018-02-07T21:24:27.973Z,40.50
2018-02-07T21:26:56.270Z,40.50
2018-02-07T21:29:25.331Z,39.33
2018-02-07T21:31:53.550Z,41.40
2018-02-07T21:34:21.771Z,39.37
2018-02-07T21:36:50.730Z,42.07
2018-02-07T21:39:19.317Z,41.20
2018-02-07T21:41:48.291Z,41.77
2018-02-07T21:44:16.538Z,41.07
2018-02-07T21:46:44.717Z,40.57
2018-02-07T21:49:12.898Z,44.37
2018-02-07T21:51:41.087Z,42.60
2018-02-07T21:54:09.542Z,45.10
2018-02-07T21:56:37.722Z,44.77
2018-02-07T21:59:05.942Z,41.30
2018-02-07T22:01:34.176Z,41.17
2018-02-07T22:04:02.409Z,39.60
2018-02-07T22:06:31.376Z,39.47
2018-02-07T22:08:59.562Z,43.70
2018-02-07T22:11:27.737Z,41.23
2018-02-07T22:13:55.909Z,41.40
2018-02-07T22:16:24.098Z,43.27
2018-02-07T22:18:53.042Z,45.27
2018-02-07T22:21:21.219Z,41.27
2018-02-07T22:23:49.406Z,42.27
2018-02-07T22:26:17.586Z,44.17
2018-02-07T22:28:45.776Z,42.43
2018-02-07T22:31:13.985Z,41.90
2018-02-07T22:33:42.163Z,41.13
2018-02-07T22:36:10.338Z,40.77
2018-02-07T22:38:38.506Z,42.90
2018-02-07T22:41:07.472Z,43.03
2018-02-07T22:43:35.640Z,43.67
2018-02-07T22:46:03.819Z,43.33
2018-02-07T22:48:31.993Z,41.97
2018-02-07T22:51:00.167Z,44.33
2018-02-07T22:53:28.354Z,45.80
2018-02-07T22:55:56.531Z,43.97
2018-02-07T22:58:25.482Z,41.50
2018-02-07T23:00:53.652Z,43.33
2018-02-07T23:03:21.850Z,44.77
2018-02-07T23:05:50.010Z,41.17
2018-02-07T23:08:18.186Z,43.20
2018-02-07T23:10:46.372Z,41.93
2018-02-07T23:13:14.551Z,42.90
2018-02-07T23:15:42.736Z,41.10
2018-02-07T23:18:10.906Z,39.80
2018-02-07T23:20:39.071Z,40.73
2018-02-07T23:23:07.256Z,43.47
2018-02-07T23:25:35.455Z,41.30
2018-02-07T23:28:04.407Z,41.40
2018-02-07T23:30:32.583Z,40.80
2018-02-07T23:33:00.759Z,41.63
2018-02-07T23:35:28.942Z,38.20
2018-02-07T23:37:57.138Z,40.80
2018-02-07T23:40:26.090Z,40.57
2018-02-07T23:42:54.293Z,41.23
2018-02-07T23:45:22.465Z,41.77
2018-02-07T23:47:50.643Z,42.50
2018-02-07T23:50:18.821Z,41.00
2018-02-07T23:52:46.999Z,40.10
2018-02-07T23:55:15.950Z,41.77
2018-02-07T23:57:44.153Z,41.20
